Time;durP1;ratioP1;P1;durP2;ratioP2;P2;SDS_P1;SDS_P2;PMS_P1;PMS_P2;Temp;Humidity;BMP_temperature;BMP_pressure;BME280_temperature;BME280_humidity;BME280_pressure;Samples;Min_cycle;Max_cycle;Signal;HPM_P1;HPM_P2
2023/11/28 00:00:56;;;;;;;2.80;2.60;;;3.70;99.90;;;;;;5026904;28;20460;-73
2023/11/28 00:03:21;;;;;;;4.50;3.37;;;3.70;99.90;;;;;;5042979;28;20461;-73
2023/11/28 00:05:47;;;;;;;4.67;2.77;;;3.70;99.90;;;;;;5046841;28;20466;-74
2023/11/28 00:08:13;;;;;;;2.90;2.53;;;3.80;99.90;;;;;;5053342;28;20306;-73
2023/11/28 00:10:39;;;;;;;3.70;2.87;;;3.70;99.90;;;;;;5048082;28;20218;-72
2023/11/28 00:13:04;;;;;;;5.03;3.00;;;3.80;99.90;;;;;;5036443;28;20690;-74
2023/11/28 00:15:32;;;;;;;2.73;2.53;;;3.80;99.90;;;;;;5053654;28;20226;-74
2023/11/28 00:17:58;;;;;;;2.27;2.07;;;3.80;99.90;;;;;;5056193;28;20359;-74
2023/11/28 00:20:24;;;;;;;4.07;2.50;;;3.80;99.90;;;;;;5044142;28;20537;-74
2023/11/28 00:22:50;;;;;;;2.43;2.23;;;3.80;99.90;;;;;;5041471;28;20219;-75
2023/11/28 00:25:18;;;;;;;4.80;2.40;;;3.80;99.90;;;;;;5058558;28;20231;-74
2023/11/28 00:27:45;;;;;;;4.30;3.27;;;3.80;99.90;;;;;;5040980;28;20458;-74
2023/11/28 00:30:13;;;;;;;6.03;3.70;;;3.80;99.90;;;;;;5038442;28;20458;-72
2023/11/28 00:32:42;;;;;;;5.10;3.50;;;3.90;99.90;;;;;;5043693;28;20461;-74
2023/11/28 00:35:08;;;;;;;3.93;2.50;;;3.90;99.90;;;;;;5019437;28;20463;-73
2023/11/28 00:37:34;;;;;;;4.07;3.13;;;3.80;99.90;;;;;;5035762;28;20449;-74
2023/11/28 00:40:00;;;;;;;2.60;2.40;;;3.90;99.90;;;;;;5062261;28;20265;-73
2023/11/28 00:42:25;;;;;;;3.17;2.33;;;3.90;99.90;;;;;;5048631;28;20288;-73
2023/11/28 00:44:52;;;;;;;3.57;2.43;;;3.90;99.90;;;;;;5028483;28;20227;-74
2023/11/28 00:47:18;;;;;;;3.30;2.90;;;3.90;99.90;;;;;;5051365;28;20240;-73
2023/11/28 00:49:44;;;;;;;3.27;2.60;;;3.90;99.90;;;;;;5034632;28;20491;-73
2023/11/28 00:52:11;;;;;;;3.43;3.03;;;4.00;99.90;;;;;;5042330;28;20277;-73
2023/11/28 00:54:38;;;;;;;2.63;2.43;;;4.00;99.90;;;;;;5035819;28;20507;-73
2023/11/28 00:57:09;;;;;;;4.40;3.07;;;4.00;99.90;;;;;;5032286;28;20469;-74
2023/11/28 00:59:38;;;;;;;3.27;2.93;;;4.10;99.90;;;;;;5060427;28;20457;-74
2023/11/28 01:02:05;;;;;;;2.73;2.43;;;4.10;99.90;;;;;;5034640;28;20461;-74
2023/11/28 01:04:32;;;;;;;3.33;2.37;;;4.10;99.90;;;;;;5073975;28;20955;-72
2023/11/28 01:06:58;;;;;;;2.93;2.23;;;4.10;99.90;;;;;;5035554;28;20458;-75
2023/11/28 01:09:24;;;;;;;3.33;2.50;;;4.00;99.90;;;;;;5051577;28;20460;-74
2023/11/28 01:11:50;;;;;;;3.60;3.13;;;4.00;99.90;;;;;;5056362;28;20211;-74
2023/11/28 01:14:17;;;;;;;2.97;2.53;;;4.10;99.90;;;;;;5060077;28;20470;-74
2023/11/28 01:16:47;;;;;;;5.00;2.73;;;4.10;99.90;;;;;;5048772;28;20810;-73
2023/11/28 01:19:13;;;;;;;2.93;2.50;;;4.10;99.90;;;;;;5048888;28;20457;-75
2023/11/28 01:21:39;;;;;;;3.33;2.50;;;4.10;99.90;;;;;;5025011;28;20446;-76
2023/11/28 01:24:05;;;;;;;5.00;3.20;;;4.10;99.90;;;;;;5026544;28;20457;-74
2023/11/28 01:26:31;;;;;;;3.30;2.20;;;4.10;99.90;;;;;;5043088;28;20214;-74
2023/11/28 01:28:56;;;;;;;2.90;2.40;;;4.10;99.90;;;;;;5028466;28;20456;-74
2023/11/28 01:31:25;;;;;;;3.83;2.07;;;4.10;99.90;;;;;;5036065;28;20307;-74
2023/11/28 01:33:51;;;;;;;3.53;2.53;;;4.10;99.90;;;;;;5043617;28;20609;-74
2023/11/28 01:36:17;;;;;;;3.40;2.33;;;4.10;99.90;;;;;;5045591;28;20472;-74
2023/11/28 01:38:43;;;;;;;4.10;2.60;;;4.10;99.90;;;;;;5044301;28;20447;-74
2023/11/28 01:41:09;;;;;;;3.00;2.37;;;4.10;99.90;;;;;;5044321;28;20231;-74
2023/11/28 01:43:35;;;;;;;4.13;3.17;;;4.10;99.90;;;;;;5047091;28;20285;-74
2023/11/28 01:46:07;;;;;;;3.90;2.70;;;4.10;99.90;;;;;;5046873;28;20503;-74
2023/11/28 01:48:34;;;;;;;5.20;1.90;;;4.10;99.90;;;;;;5044000;28;20219;-75
2023/11/28 01:51:00;;;;;;;2.67;2.17;;;4.10;99.90;;;;;;5034527;28;20470;-74
2023/11/28 01:53:27;;;;;;;2.93;2.20;;;4.20;99.90;;;;;;5053069;28;21038;-75
2023/11/28 01:55:54;;;;;;;5.20;3.50;;;4.10;99.90;;;;;;5042776;28;20227;-74
2023/11/28 01:58:20;;;;;;;5.10;2.63;;;4.10;99.90;;;;;;5031293;28;20467;-74
2023/11/28 02:00:47;;;;;;;4.23;3.23;;;4.10;99.90;;;;;;5028508;28;20462;-74
2023/11/28 02:03:14;;;;;;;3.60;2.80;;;4.20;99.90;;;;;;5007176;28;20976;-74
2023/11/28 02:05:40;;;;;;;3.70;2.77;;;4.20;99.90;;;;;;5049502;28;20459;-75
2023/11/28 02:08:10;;;;;;;3.73;2.20;;;4.20;99.90;;;;;;5006472;28;21049;-74
2023/11/28 02:10:38;;;;;;;2.60;2.13;;;4.20;99.90;;;;;;5051332;28;20311;-74
2023/11/28 02:13:06;;;;;;;3.73;2.57;;;4.20;99.90;;;;;;5015496;28;20981;-74
2023/11/28 02:15:38;;;;;;;2.70;1.97;;;4.20;99.90;;;;;;5013447;28;20464;-74
2023/11/28 02:18:04;;;;;;;3.40;2.27;;;4.20;99.90;;;;;;5016772;28;20537;-74
2023/11/28 02:20:30;;;;;;;2.43;2.03;;;4.20;99.90;;;;;;5027164;28;20455;-74
2023/11/28 02:22:56;;;;;;;3.10;1.90;;;4.20;99.90;;;;;;5045390;28;20223;-74
2023/11/28 02:25:23;;;;;;;2.80;1.87;;;4.30;99.90;;;;;;5036570;28;20454;-74
2023/11/28 02:27:48;;;;;;;3.70;2.63;;;4.20;99.90;;;;;;5037317;28;20292;-74
2023/11/28 02:30:14;;;;;;;2.80;2.03;;;4.20;99.90;;;;;;5046828;28;20542;-74
2023/11/28 02:32:40;;;;;;;2.33;1.93;;;4.30;99.90;;;;;;5038022;28;20685;-74
2023/11/28 02:35:06;;;;;;;2.70;2.20;;;4.30;99.90;;;;;;5032125;28;20219;-74
2023/11/28 02:37:31;;;;;;;2.30;2.10;;;4.30;99.90;;;;;;5028800;28;20220;-74
2023/11/28 02:39:57;;;;;;;2.37;1.80;;;4.30;99.90;;;;;;5039946;28;20468;-72
2023/11/28 02:42:23;;;;;;;1.97;1.87;;;4.30;99.90;;;;;;5038148;28;20219;-75
2023/11/28 02:44:48;;;;;;;2.17;1.80;;;4.30;99.90;;;;;;5027736;28;20212;-74
2023/11/28 02:47:14;;;;;;;3.07;2.40;;;4.30;99.90;;;;;;5041829;28;20255;-75
2023/11/28 02:49:39;;;;;;;1.93;1.43;;;4.30;99.90;;;;;;5044148;28;20207;-73
2023/11/28 02:52:06;;;;;;;2.10;1.90;;;4.40;99.90;;;;;;5047582;28;20426;-74
2023/11/28 02:54:32;;;;;;;1.50;1.40;;;4.40;99.90;;;;;;5063289;28;20445;-74
2023/11/28 02:56:58;;;;;;;1.53;1.43;;;4.40;99.90;;;;;;5040180;28;20840;-74
2023/11/28 02:59:24;;;;;;;1.67;1.57;;;4.40;99.90;;;;;;5043593;28;20215;-76
2023/11/28 03:01:53;;;;;;;1.10;1.00;;;4.50;99.90;;;;;;5025595;28;20215;-74
2023/11/28 03:04:21;;;;;;;1.63;1.40;;;4.50;99.90;;;;;;5023973;28;20216;-74
2023/11/28 03:06:48;;;;;;;1.57;1.20;;;4.50;99.90;;;;;;5023895;28;20465;-74
2023/11/28 03:09:13;;;;;;;1.43;0.90;;;4.60;99.90;;;;;;5030702;28;20458;-74
2023/11/28 03:11:39;;;;;;;2.00;1.60;;;4.60;99.90;;;;;;5026581;28;20472;-74
2023/11/28 03:14:05;;;;;;;1.17;1.07;;;4.60;99.90;;;;;;5022232;28;20357;-74
2023/11/28 03:16:31;;;;;;;0.80;0.73;;;4.60;99.90;;;;;;5013956;28;21019;-74
2023/11/28 03:18:56;;;;;;;1.17;1.07;;;4.60;99.90;;;;;;5015515;28;20308;-74
2023/11/28 03:21:22;;;;;;;1.00;0.73;;;4.60;99.90;;;;;;5034333;28;20256;-74
2023/11/28 03:23:47;;;;;;;0.70;0.70;;;4.60;99.90;;;;;;5030685;28;20594;-74
2023/11/28 03:26:13;;;;;;;1.13;0.90;;;4.50;99.90;;;;;;5017157;28;20216;-74
2023/11/28 03:28:39;;;;;;;1.80;0.50;;;4.50;99.90;;;;;;5029935;28;20588;-73
2023/11/28 03:31:05;;;;;;;0.63;0.43;;;4.50;99.90;;;;;;5020085;28;20240;-74
2023/11/28 03:33:32;;;;;;;0.40;0.40;;;4.50;99.90;;;;;;5022324;28;20230;-73
2023/11/28 03:35:58;;;;;;;0.50;0.50;;;4.50;99.90;;;;;;5028937;28;20462;-74
2023/11/28 03:38:24;;;;;;;0.30;0.30;;;4.50;99.90;;;;;;5031432;28;20465;-74
2023/11/28 03:40:49;;;;;;;0.60;0.60;;;4.40;99.90;;;;;;5055700;28;20295;-74
2023/11/28 03:43:15;;;;;;;0.50;0.40;;;4.40;99.90;;;;;;5043132;28;20316;-74
2023/11/28 03:45:41;;;;;;;0.33;0.33;;;4.40;99.90;;;;;;5035581;28;20265;-74
2023/11/28 03:48:06;;;;;;;0.50;0.40;;;4.40;99.90;;;;;;5028266;28;20220;-74
2023/11/28 03:50:32;;;;;;;0.30;0.30;;;4.40;99.90;;;;;;5022872;28;20221;-74
2023/11/28 03:52:57;;;;;;;0.30;0.30;;;4.40;99.90;;;;;;5046670;28;20224;-75
2023/11/28 03:55:23;;;;;;;2.63;0.47;;;4.30;99.90;;;;;;5039863;28;20270;-74
2023/11/28 03:57:50;;;;;;;0.50;0.40;;;4.30;99.90;;;;;;5040284;28;20292;-75
2023/11/28 04:00:16;;;;;;;0.50;0.40;;;4.30;99.90;;;;;;5048971;28;20478;-75
2023/11/28 04:02:42;;;;;;;0.50;0.40;;;4.30;99.90;;;;;;5043388;28;20454;-74
2023/11/28 04:05:09;;;;;;;0.63;0.40;;;4.30;99.90;;;;;;5040291;28;20469;-74
2023/11/28 04:07:35;;;;;;;0.40;0.30;;;4.20;99.90;;;;;;5042679;28;20450;-74
2023/11/28 04:10:01;;;;;;;0.40;0.30;;;4.20;99.90;;;;;;5043539;28;20216;-74
2023/11/28 04:12:27;;;;;;;0.53;0.40;;;4.20;99.90;;;;;;5043374;28;20845;-74
2023/11/28 04:14:53;;;;;;;0.40;0.40;;;4.20;99.90;;;;;;5029071;28;20450;-75
2023/11/28 04:17:18;;;;;;;0.60;0.50;;;4.20;99.90;;;;;;5044488;28;20633;-74
2023/11/28 04:19:45;;;;;;;0.60;0.40;;;4.20;99.90;;;;;;5040300;28;20205;-74
2023/11/28 04:22:11;;;;;;;0.60;0.50;;;4.20;99.90;;;;;;5031535;28;20477;-74
2023/11/28 04:24:38;;;;;;;0.40;0.30;;;4.20;99.90;;;;;;5037008;28;20220;-74
2023/11/28 04:27:04;;;;;;;0.53;0.40;;;4.10;99.90;;;;;;5020078;28;20455;-74
2023/11/28 04:29:30;;;;;;;0.40;0.30;;;4.00;99.90;;;;;;5030915;28;20211;-74
2023/11/28 04:31:57;;;;;;;0.40;0.40;;;4.00;99.90;;;;;;5031341;28;20484;-75
2023/11/28 04:34:23;;;;;;;0.50;0.50;;;3.90;99.90;;;;;;5028999;28;20509;-74
2023/11/28 04:36:49;;;;;;;0.50;0.37;;;3.90;99.90;;;;;;5032001;28;21063;-74
2023/11/28 04:39:16;;;;;;;0.40;0.30;;;3.90;99.90;;;;;;5051729;28;20213;-75
2023/11/28 04:41:45;;;;;;;0.40;0.30;;;3.90;99.90;;;;;;5042792;28;20444;-74
2023/11/28 04:44:12;;;;;;;0.30;0.30;;;3.90;99.90;;;;;;5055541;28;21002;-75
2023/11/28 04:46:38;;;;;;;0.40;0.30;;;3.90;99.90;;;;;;5042882;28;20205;-74
2023/11/28 04:49:04;;;;;;;0.40;0.30;;;3.80;99.90;;;;;;5044989;28;20442;-74
2023/11/28 04:51:29;;;;;;;0.50;0.50;;;3.80;99.90;;;;;;5027600;28;20215;-73
2023/11/28 04:53:55;;;;;;;0.43;0.43;;;3.90;99.90;;;;;;5030976;28;20227;-74
2023/11/28 04:56:21;;;;;;;0.37;0.27;;;3.80;99.90;;;;;;5031249;28;20224;-74
2023/11/28 04:58:47;;;;;;;0.40;0.30;;;3.80;99.90;;;;;;5030140;28;20212;-74
2023/11/28 05:01:13;;;;;;;0.40;0.40;;;3.80;99.90;;;;;;5062506;28;20579;-74
2023/11/28 05:03:38;;;;;;;0.83;0.60;;;3.90;99.90;;;;;;5047164;28;20720;-75
2023/11/28 05:06:04;;;;;;;0.90;0.50;;;3.90;99.90;;;;;;5045967;28;20545;-74
2023/11/28 05:08:30;;;;;;;0.40;0.40;;;3.80;99.90;;;;;;5042679;28;20208;-74
2023/11/28 05:10:57;;;;;;;0.40;0.40;;;3.80;99.90;;;;;;5062443;28;20462;-74
2023/11/28 05:13:23;;;;;;;0.60;0.60;;;3.80;99.90;;;;;;5039743;28;20220;-74
2023/11/28 05:15:49;;;;;;;1.43;0.60;;;3.80;99.90;;;;;;5035539;28;21098;-74
2023/11/28 05:18:15;;;;;;;0.50;0.50;;;3.80;99.90;;;;;;5033962;28;20220;-74
2023/11/28 05:20:41;;;;;;;0.40;0.40;;;3.80;99.90;;;;;;5043368;28;20463;-74
2023/11/28 05:23:06;;;;;;;0.50;0.50;;;3.80;99.90;;;;;;5033463;28;20299;-74
2023/11/28 05:25:34;;;;;;;0.50;0.40;;;3.80;99.90;;;;;;5049428;28;20212;-74
2023/11/28 05:28:00;;;;;;;0.43;0.40;;;3.80;99.90;;;;;;5008456;28;20549;-74
2023/11/28 05:30:26;;;;;;;0.70;0.70;;;3.80;99.90;;;;;;5051655;28;20641;-74
2023/11/28 05:32:53;;;;;;;1.70;1.07;;;3.80;99.90;;;;;;5035324;28;20211;-74
2023/11/28 05:35:21;;;;;;;1.03;0.70;;;3.80;99.90;;;;;;5018259;28;20451;-74
2023/11/28 05:37:47;;;;;;;0.70;0.70;;;3.80;99.90;;;;;;5031545;28;20518;-74
2023/11/28 05:40:13;;;;;;;1.07;0.70;;;3.70;99.90;;;;;;5025700;28;20451;-74
2023/11/28 05:42:39;;;;;;;0.70;0.70;;;3.70;99.90;;;;;;5021826;28;20212;-74
2023/11/28 05:45:05;;;;;;;0.60;0.60;;;3.70;99.90;;;;;;5029927;28;20456;-74
2023/11/28 05:47:31;;;;;;;0.60;0.60;;;3.70;99.90;;;;;;5002153;28;20225;-74
2023/11/28 05:49:59;;;;;;;0.70;0.70;;;3.70;99.90;;;;;;5043156;28;20451;-74
2023/11/28 05:52:24;;;;;;;1.23;0.70;;;3.70;99.90;;;;;;5017720;28;20213;-74
2023/11/28 05:54:50;;;;;;;0.73;0.73;;;3.70;99.90;;;;;;5028638;28;20459;-75
2023/11/28 05:57:17;;;;;;;0.60;0.60;;;3.70;99.90;;;;;;5017417;28;20263;-74
2023/11/28 05:59:43;;;;;;;0.53;0.43;;;3.70;99.90;;;;;;5038789;28;20595;-74
2023/11/28 06:02:09;;;;;;;0.70;0.70;;;3.70;99.90;;;;;;5012858;28;20471;-74
2023/11/28 06:04:35;;;;;;;0.50;0.40;;;3.70;99.90;;;;;;5016355;28;20274;-73
2023/11/28 06:07:02;;;;;;;1.63;0.70;;;3.70;99.90;;;;;;5015461;28;20213;-74
2023/11/28 06:09:28;;;;;;;1.10;0.73;;;3.70;99.90;;;;;;5050634;28;20451;-75
2023/11/28 06:11:55;;;;;;;1.23;0.70;;;3.70;99.90;;;;;;5030711;28;20470;-74
2023/11/28 06:14:23;;;;;;;1.57;0.60;;;3.60;99.90;;;;;;5019062;28;20467;-74
2023/11/28 06:16:48;;;;;;;0.60;0.60;;;3.70;99.90;;;;;;5013937;28;21047;-74
2023/11/28 06:19:15;;;;;;;1.50;1.13;;;3.70;99.90;;;;;;5021520;28;20517;-74
2023/11/28 06:21:42;;;;;;;2.20;1.27;;;3.70;99.90;;;;;;5027383;28;20233;-74
2023/11/28 06:24:08;;;;;;;2.33;0.90;;;3.70;99.90;;;;;;5030201;28;20455;-74
2023/11/28 06:26:33;;;;;;;1.03;1.03;;;3.70;99.90;;;;;;5020712;28;20450;-74
2023/11/28 06:28:59;;;;;;;1.03;0.70;;;3.70;99.90;;;;;;5032712;28;20827;-75
2023/11/28 06:31:25;;;;;;;1.10;1.00;;;3.70;99.90;;;;;;5025294;28;20222;-74
2023/11/28 06:33:51;;;;;;;0.50;0.43;;;3.70;99.90;;;;;;5039641;28;20278;-75
2023/11/28 06:36:21;;;;;;;0.60;0.60;;;3.60;99.90;;;;;;5056470;28;20382;-74
2023/11/28 06:38:48;;;;;;;0.87;0.57;;;3.60;99.90;;;;;;5022145;28;20576;-75
2023/11/28 06:41:14;;;;;;;0.70;0.60;;;3.60;99.90;;;;;;5036398;28;20562;-74
2023/11/28 06:43:40;;;;;;;0.73;0.73;;;3.60;99.90;;;;;;5058373;28;20466;-73
2023/11/28 06:46:06;;;;;;;1.47;0.80;;;3.60;99.90;;;;;;5029283;28;20498;-74
2023/11/28 06:48:32;;;;;;;0.80;0.53;;;3.60;99.90;;;;;;5042157;28;20226;-74
2023/11/28 06:50:57;;;;;;;1.03;0.70;;;3.60;99.90;;;;;;5019243;28;20213;-74
2023/11/28 06:53:23;;;;;;;0.90;0.80;;;3.60;99.90;;;;;;5022854;28;20230;-74
2023/11/28 06:55:49;;;;;;;0.80;0.80;;;3.70;99.90;;;;;;5014476;28;20602;-74
2023/11/28 06:58:14;;;;;;;0.70;0.70;;;3.60;99.90;;;;;;5032664;28;20220;-73
2023/11/28 07:00:40;;;;;;;0.70;0.70;;;3.60;99.90;;;;;;5042334;28;20212;-75
2023/11/28 07:03:06;;;;;;;0.73;0.73;;;3.60;99.90;;;;;;5020665;28;20216;-74
2023/11/28 07:05:31;;;;;;;0.90;0.70;;;3.60;99.90;;;;;;5022902;28;20244;-74
2023/11/28 07:07:57;;;;;;;0.80;0.80;;;3.60;99.90;;;;;;5034868;28;20238;-74
2023/11/28 07:10:23;;;;;;;0.77;0.60;;;3.60;99.90;;;;;;5048300;28;20215;-74
2023/11/28 07:12:49;;;;;;;0.87;0.87;;;3.60;99.90;;;;;;5043639;28;20220;-74
2023/11/28 07:15:15;;;;;;;0.70;0.70;;;3.60;99.90;;;;;;5040930;28;20223;-74
2023/11/28 07:17:41;;;;;;;0.83;0.77;;;3.60;99.90;;;;;;5042929;28;20464;-73
2023/11/28 07:20:09;;;;;;;0.80;0.80;;;3.50;99.90;;;;;;5036238;28;20255;-74
2023/11/28 07:22:35;;;;;;;0.80;0.80;;;3.60;99.90;;;;;;5059174;28;20220;-74
2023/11/28 07:25:03;;;;;;;0.80;0.80;;;3.60;99.90;;;;;;5059135;28;20478;-74
2023/11/28 07:27:28;;;;;;;0.80;0.70;;;3.50;99.90;;;;;;5024573;28;21086;-74
2023/11/28 07:29:54;;;;;;;0.80;0.80;;;3.50;99.90;;;;;;5038515;28;20469;-74
2023/11/28 07:32:20;;;;;;;1.07;0.97;;;3.50;99.90;;;;;;5053349;28;20242;-74
2023/11/28 07:34:46;;;;;;;0.90;0.90;;;3.50;99.90;;;;;;5061275;28;20458;-74
2023/11/28 07:37:11;;;;;;;0.70;0.70;;;3.40;99.90;;;;;;5023112;28;20215;-74
2023/11/28 07:39:38;;;;;;;1.73;1.20;;;3.40;99.90;;;;;;5043582;28;20274;-74
2023/11/28 07:42:04;;;;;;;1.33;1.10;;;3.40;99.90;;;;;;5036572;28;20303;-73
2023/11/28 07:44:29;;;;;;;1.23;1.13;;;3.40;99.90;;;;;;5059994;28;20549;-74
2023/11/28 07:46:55;;;;;;;1.23;1.13;;;3.30;99.90;;;;;;5057808;28;20223;-74
2023/11/28 07:49:21;;;;;;;1.20;1.10;;;3.30;99.90;;;;;;5015962;28;20213;-74
2023/11/28 07:51:47;;;;;;;1.23;1.13;;;3.30;99.90;;;;;;5041711;28;20465;-74
2023/11/28 07:54:12;;;;;;;0.90;0.90;;;3.30;99.90;;;;;;5053338;28;20220;-74
2023/11/28 07:56:39;;;;;;;1.53;1.30;;;3.30;99.90;;;;;;5043315;28;20204;-72
2023/11/28 07:59:04;;;;;;;1.10;1.00;;;3.30;99.90;;;;;;5027698;28;20221;-74
2023/11/28 08:01:30;;;;;;;1.30;1.20;;;3.30;99.90;;;;;;5043931;28;20457;-74
2023/11/28 08:03:56;;;;;;;1.30;1.20;;;3.30;99.90;;;;;;5026440;28;20246;-74
2023/11/28 08:06:21;;;;;;;1.50;1.40;;;3.30;99.90;;;;;;5045179;28;20298;-74
2023/11/28 08:08:47;;;;;;;1.67;1.57;;;3.30;99.90;;;;;;5052960;28;20233;-74
2023/11/28 08:11:14;;;;;;;1.10;1.00;;;3.30;99.90;;;;;;5024398;28;20300;-74
2023/11/28 08:13:40;;;;;;;1.20;1.10;;;3.20;99.90;;;;;;5021466;28;20236;-74
2023/11/28 08:16:06;;;;;;;1.40;1.30;;;3.20;99.90;;;;;;5047007;28;20460;-74
2023/11/28 08:18:32;;;;;;;0.90;0.90;;;3.20;99.90;;;;;;5017027;28;20468;-74
2023/11/28 08:20:58;;;;;;;1.43;1.33;;;3.20;99.90;;;;;;5031857;28;20485;-75
2023/11/28 08:23:23;;;;;;;1.40;1.30;;;3.20;99.90;;;;;;5027825;28;20212;-74
2023/11/28 08:25:49;;;;;;;1.60;1.50;;;3.20;99.90;;;;;;5013705;28;20495;-74
2023/11/28 08:28:15;;;;;;;1.57;1.47;;;3.20;99.90;;;;;;5019657;28;20299;-74
2023/11/28 08:30:41;;;;;;;1.73;1.60;;;3.20;99.90;;;;;;5035299;28;20471;-74
2023/11/28 08:33:07;;;;;;;1.80;1.70;;;3.30;99.90;;;;;;5043897;28;20278;-74
2023/11/28 08:35:32;;;;;;;2.03;1.83;;;3.30;99.90;;;;;;5038055;28;20216;-74
2023/11/28 08:37:58;;;;;;;1.20;1.10;;;3.20;99.90;;;;;;5023089;28;20217;-74
2023/11/28 08:40:24;;;;;;;2.97;1.97;;;3.20;99.90;;;;;;5044067;28;20208;-74
2023/11/28 08:42:50;;;;;;;2.33;2.13;;;3.20;99.90;;;;;;5043772;28;20212;-75
2023/11/28 08:45:16;;;;;;;2.10;1.90;;;3.20;99.90;;;;;;5019925;28;20784;-74
2023/11/28 08:47:42;;;;;;;3.60;1.63;;;3.20;99.90;;;;;;5019039;28;20208;-73
2023/11/28 08:50:07;;;;;;;1.47;1.37;;;3.20;99.90;;;;;;5039342;28;20232;-74
2023/11/28 08:52:33;;;;;;;1.30;1.20;;;3.20;99.90;;;;;;5022294;28;20474;-74
2023/11/28 08:55:03;;;;;;;1.97;1.57;;;3.20;99.90;;;;;;5022224;28;20542;-74
2023/11/28 08:57:33;;;;;;;1.30;1.20;;;3.20;99.90;;;;;;5015045;28;20224;-75
2023/11/28 09:00:03;;;;;;;1.30;1.20;;;3.20;99.90;;;;;;5047769;28;20478;-74
2023/11/28 09:02:29;;;;;;;1.90;1.10;;;3.20;99.90;;;;;;5020268;28;21063;-74
2023/11/28 09:04:55;;;;;;;1.53;1.43;;;3.20;99.90;;;;;;5037357;28;20537;-74
2023/11/28 09:07:21;;;;;;;1.77;1.67;;;3.20;99.90;;;;;;5025448;28;20252;-75
2023/11/28 09:09:47;;;;;;;1.10;1.10;;;3.20;99.90;;;;;;5018024;28;20223;-73
2023/11/28 09:12:15;;;;;;;2.00;1.80;;;3.20;99.90;;;;;;5034074;28;20541;-74
2023/11/28 09:14:40;;;;;;;1.50;1.40;;;3.10;99.90;;;;;;5042872;28;20209;-74
2023/11/28 09:17:06;;;;;;;1.77;1.67;;;3.20;99.90;;;;;;5035347;28;20538;-74
2023/11/28 09:19:32;;;;;;;1.57;1.47;;;3.20;99.90;;;;;;5008961;28;20239;-74
2023/11/28 09:22:01;;;;;;;1.60;1.50;;;3.30;99.90;;;;;;5033574;28;20486;-74
2023/11/28 09:24:27;;;;;;;2.20;2.00;;;3.30;99.90;;;;;;5013871;28;20243;-73
2023/11/28 09:26:52;;;;;;;3.97;1.93;;;3.20;99.90;;;;;;5016007;28;21077;-73
2023/11/28 09:29:22;;;;;;;1.40;1.40;;;3.20;99.90;;;;;;5019014;28;20698;-71
2023/11/28 09:31:48;;;;;;;1.40;1.20;;;3.20;99.90;;;;;;5036797;28;20288;-72
2023/11/28 09:34:14;;;;;;;1.90;1.20;;;3.20;99.90;;;;;;5029358;28;20475;-75
2023/11/28 09:36:39;;;;;;;3.00;2.10;;;3.20;99.90;;;;;;5034948;28;20464;-74
2023/11/28 09:39:05;;;;;;;1.97;1.80;;;3.20;99.90;;;;;;5039786;28;20220;-74
2023/11/28 09:41:35;;;;;;;2.00;1.80;;;3.20;99.90;;;;;;5025854;28;20209;-74
2023/11/28 09:44:02;;;;;;;2.10;1.90;;;3.20;99.90;;;;;;5031445;28;20213;-74
2023/11/28 09:46:30;;;;;;;2.07;1.90;;;3.20;99.90;;;;;;5006483;28;20472;-74
2023/11/28 09:48:59;;;;;;;1.57;1.47;;;3.20;99.90;;;;;;5019483;28;20499;-74
2023/11/28 09:51:27;;;;;;;2.23;2.03;;;3.20;99.90;;;;;;5035934;28;20462;-74
2023/11/28 09:53:57;;;;;;;1.63;1.53;;;3.20;99.90;;;;;;5037251;28;20499;-74
2023/11/28 09:56:24;;;;;;;1.80;1.70;;;3.20;99.90;;;;;;5002259;28;20482;-74
2023/11/28 09:59:00;;;;;;;2.27;2.07;;;3.20;99.90;;;;;;5020991;28;20455;-74
2023/11/28 10:01:26;;;;;;;2.27;1.93;;;3.20;99.90;;;;;;5019099;28;20466;-75
2023/11/28 10:03:54;;;;;;;3.13;2.33;;;3.20;99.90;;;;;;5008876;28;20606;-74
2023/11/28 10:06:21;;;;;;;1.87;1.77;;;3.20;99.90;;;;;;5054889;28;20232;-74
2023/11/28 10:08:50;;;;;;;2.37;2.00;;;3.20;99.90;;;;;;5043284;28;20464;-74
2023/11/28 10:11:17;;;;;;;2.33;2.13;;;3.30;99.90;;;;;;5036892;28;20547;-74
2023/11/28 10:13:47;;;;;;;1.50;1.40;;;3.30;99.90;;;;;;5034351;28;20481;-74
2023/11/28 10:16:19;;;;;;;2.57;2.37;;;3.30;99.90;;;;;;5003353;28;20464;-74
2023/11/28 10:18:47;;;;;;;1.90;1.60;;;3.20;99.90;;;;;;5032976;28;20458;-74
2023/11/28 10:21:15;;;;;;;2.53;2.33;;;3.20;99.90;;;;;;5032507;28;20488;-74
2023/11/28 10:23:46;;;;;;;2.50;2.30;;;3.20;99.90;;;;;;5011909;28;20471;-74
2023/11/28 10:26:11;;;;;;;2.27;1.90;;;3.20;99.90;;;;;;5033059;28;20470;-74
2023/11/28 10:28:37;;;;;;;1.80;1.67;;;3.20;99.90;;;;;;5033108;28;20467;-74
2023/11/28 10:31:06;;;;;;;2.53;2.33;;;3.20;99.90;;;;;;5045968;28;20224;-75
2023/11/28 10:33:32;;;;;;;3.00;2.60;;;3.20;99.90;;;;;;5060941;28;20220;-74
2023/11/28 10:35:58;;;;;;;2.27;2.07;;;3.30;99.90;;;;;;5029716;28;20915;-73
2023/11/28 10:38:26;;;;;;;2.37;2.17;;;3.20;99.90;;;;;;5018665;28;20489;-74
2023/11/28 10:40:53;;;;;;;2.40;2.17;;;3.30;99.90;;;;;;5034654;28;20222;-74
2023/11/28 10:43:19;;;;;;;3.10;2.50;;;3.30;99.90;;;;;;5058683;28;20482;-75
2023/11/28 10:45:45;;;;;;;2.63;2.20;;;3.20;99.90;;;;;;5060145;28;21003;-74
2023/11/28 10:48:12;;;;;;;2.10;1.90;;;3.20;99.90;;;;;;5006356;28;20517;-74
2023/11/28 10:50:37;;;;;;;2.27;2.10;;;3.20;99.90;;;;;;5027391;28;20553;-74
2023/11/28 10:53:06;;;;;;;2.20;2.00;;;3.20;99.90;;;;;;5036762;28;20557;-74
2023/11/28 10:55:40;;;;;;;2.00;1.80;;;3.20;99.90;;;;;;5029623;28;20205;-74
2023/11/28 10:58:09;;;;;;;4.70;2.20;;;3.30;99.90;;;;;;5038019;28;20546;-73
2023/11/28 11:00:39;;;;;;;2.67;2.47;;;3.20;99.90;;;;;;5022730;28;20514;-74
2023/11/28 11:03:07;;;;;;;3.23;2.80;;;3.20;99.90;;;;;;4996893;28;20464;-74
2023/11/28 11:05:34;;;;;;;2.77;2.10;;;3.20;99.90;;;;;;5007085;28;21103;-74
2023/11/28 11:08:01;;;;;;;2.83;2.40;;;3.20;99.90;;;;;;5013482;28;20468;-75
2023/11/28 11:10:30;;;;;;;2.40;2.30;;;3.20;99.90;;;;;;5035559;28;20769;-74
2023/11/28 11:13:17;;;;;;;3.20;2.90;;;3.20;99.90;;;;;;5053048;28;20498;-74
2023/11/28 11:15:57;;;;;;;2.50;2.30;;;3.20;99.90;;;;;;5019724;28;20487;-74
2023/11/28 11:18:41;;;;;;;4.43;3.60;;;3.20;99.90;;;;;;5057161;28;20543;-74
2023/11/28 11:21:22;;;;;;;4.43;2.87;;;3.20;99.90;;;;;;5023499;28;20447;-74
2023/11/28 11:23:53;;;;;;;4.67;3.90;;;3.20;99.90;;;;;;5029646;28;20462;-75
2023/11/28 11:26:39;;;;;;;5.10;4.60;;;3.10;99.90;;;;;;5016983;28;20509;-74
2023/11/28 11:29:26;;;;;;;3.57;2.90;;;3.10;99.90;;;;;;5046768;28;20507;-74
2023/11/28 11:32:01;;;;;;;4.50;4.00;;;3.10;99.90;;;;;;5028346;28;20549;-73
2023/11/28 11:34:47;;;;;;;5.27;3.80;;;3.10;99.90;;;;;;5042078;28;20479;-74
2023/11/28 11:37:18;;;;;;;3.97;3.33;;;3.10;99.90;;;;;;5054609;28;20450;-74
2023/11/28 11:39:45;;;;;;;5.10;3.50;;;3.10;99.90;;;;;;5043776;28;21007;-73
2023/11/28 11:42:33;;;;;;;6.37;4.13;;;3.10;99.90;;;;;;5040486;28;20571;-74
2023/11/28 11:45:06;;;;;;;4.43;3.37;;;3.00;99.90;;;;;;5013738;28;20452;-75
2023/11/28 11:47:33;;;;;;;3.10;2.80;;;3.10;99.90;;;;;;5016392;28;20486;-74
2023/11/28 11:50:06;;;;;;;3.80;3.40;;;3.00;99.90;;;;;;5016511;28;20463;-74
2023/11/28 11:52:32;;;;;;;6.20;3.50;;;3.10;99.90;;;;;;5018104;28;20556;-74
2023/11/28 11:55:12;;;;;;;4.53;3.77;;;3.00;99.90;;;;;;5043503;28;20957;-74
2023/11/28 11:57:39;;;;;;;4.60;2.87;;;3.00;99.90;;;;;;5032310;28;20529;-74
2023/11/28 12:00:13;;;;;;;4.30;3.43;;;3.00;99.90;;;;;;5036572;28;20520;-74
2023/11/28 12:02:40;;;;;;;3.83;2.87;;;3.00;99.90;;;;;;5022192;28;20477;-74
2023/11/28 12:05:06;;;;;;;6.70;4.07;;;2.90;99.90;;;;;;5052478;28;20533;-74
2023/11/28 12:07:33;;;;;;;5.33;4.00;;;2.90;99.90;;;;;;5052076;28;20567;-75
2023/11/28 12:10:08;;;;;;;5.57;3.20;;;2.80;99.90;;;;;;5061328;28;20465;-74
2023/11/28 12:12:34;;;;;;;5.20;3.90;;;2.90;99.90;;;;;;5024324;28;20474;-72
2023/11/28 12:15:00;;;;;;;3.67;3.37;;;2.90;99.90;;;;;;5058288;28;20458;-74
2023/11/28 12:17:26;;;;;;;4.20;2.77;;;3.00;99.90;;;;;;5039681;28;20469;-74
2023/11/28 12:19:52;;;;;;;6.63;3.67;;;2.90;99.90;;;;;;5057050;28;20208;-74
2023/11/28 12:22:18;;;;;;;2.93;2.73;;;2.90;99.90;;;;;;5039274;28;20298;-74
2023/11/28 12:24:44;;;;;;;3.20;2.90;;;2.80;99.90;;;;;;5037732;28;20216;-74
2023/11/28 12:27:10;;;;;;;3.77;3.37;;;2.80;99.90;;;;;;5037502;28;20445;-74
2023/11/28 12:29:37;;;;;;;4.17;3.13;;;2.90;99.90;;;;;;5042757;28;20229;-74
2023/11/28 12:32:05;;;;;;;4.47;3.43;;;2.80;99.90;;;;;;5053631;28;20466;-74
2023/11/28 12:34:32;;;;;;;4.40;3.50;;;2.80;99.90;;;;;;5062217;28;20530;-75
2023/11/28 12:36:58;;;;;;;3.77;3.37;;;2.80;99.90;;;;;;5039268;28;20478;-74
2023/11/28 12:39:27;;;;;;;5.03;4.10;;;2.80;99.90;;;;;;5045654;28;20470;-75
2023/11/28 12:41:54;;;;;;;8.53;4.80;;;2.80;99.90;;;;;;5043485;28;21014;-74
2023/11/28 12:44:30;;;;;;;4.70;4.00;;;2.80;99.90;;;;;;5061830;28;20462;-73
2023/11/28 12:46:59;;;;;;;5.20;4.70;;;2.80;99.90;;;;;;5060686;28;20472;-74
2023/11/28 12:49:27;;;;;;;6.63;4.40;;;2.80;99.90;;;;;;5031229;28;20465;-74
2023/11/28 12:51:57;;;;;;;4.90;3.97;;;2.80;99.90;;;;;;5043342;28;20466;-75
2023/11/28 12:54:24;;;;;;;3.97;2.80;;;2.70;99.90;;;;;;5043081;28;20549;-74
2023/11/28 12:56:52;;;;;;;4.73;3.37;;;2.70;99.90;;;;;;5057806;28;20477;-74